sensor_id;sensor_type;location;lat;lon;timestamp;pressure;altitude;pressure_sealevel;temperature;humidity
61474;BME280;53694;49.784;30.150;2022-12-17T00:00:51;99243.39;;;7.16;74.62
61474;BME280;53694;49.784;30.150;2022-12-17T00:01:53;99245.02;;;7.33;74.57
61474;BME280;53694;49.784;30.150;2022-12-17T00:02:56;99248.49;;;7.46;73.59
61474;BME280;53694;49.784;30.150;2022-12-17T00:03:58;99243.23;;;7.53;73.26
61474;BME280;53694;49.784;30.150;2022-12-17T00:05:00;99247.37;;;7.63;73.15
61474;BME280;53694;49.784;30.150;2022-12-17T00:06:01;99249.75;;;7.64;72.12
61474;BME280;53694;49.784;30.150;2022-12-17T00:07:03;99247.11;;;7.68;72.48
61474;BME280;53694;49.784;30.150;2022-12-17T00:08:04;99249.25;;;7.74;72.45
61474;BME280;53694;49.784;30.150;2022-12-17T00:09:06;99250.92;;;7.79;72.23
61474;BME280;53694;49.784;30.150;2022-12-17T00:10:08;99247.49;;;7.82;72.01
61474;BME280;53694;49.784;30.150;2022-12-17T00:11:10;99247.55;;;7.86;71.82
61474;BME280;53694;49.784;30.150;2022-12-17T00:12:11;99262.05;;;7.86;71.70
61474;BME280;53694;49.784;30.150;2022-12-17T00:13:20;99259.74;;;7.88;71.77
61474;BME280;53694;49.784;30.150;2022-12-17T00:14:22;99254.00;;;7.93;71.62
61474;BME280;53694;49.784;30.150;2022-12-17T00:15:24;99263.88;;;7.98;71.62
61474;BME280;53694;49.784;30.150;2022-12-17T00:16:25;99275.80;;;8.06;71.42
61474;BME280;53694;49.784;30.150;2022-12-17T00:17:27;99265.05;;;8.13;71.33
61474;BME280;53694;49.784;30.150;2022-12-17T00:18:28;99260.09;;;8.18;70.93
61474;BME280;53694;49.784;30.150;2022-12-17T00:19:30;99249.61;;;8.20;70.92
61474;BME280;53694;49.784;30.150;2022-12-17T00:20:31;99254.44;;;8.27;70.55
61474;BME280;53694;49.784;30.150;2022-12-17T00:21:33;99252.94;;;8.30;70.22
61474;BME280;53694;49.784;30.150;2022-12-17T00:22:35;99242.70;;;8.26;69.62
61474;BME280;53694;49.784;30.150;2022-12-17T00:23:36;99242.61;;;8.23;70.13
61474;BME280;53694;49.784;30.150;2022-12-17T00:24:38;99248.08;;;8.23;70.16
61474;BME280;53694;49.784;30.150;2022-12-17T00:25:39;99252.67;;;8.19;70.35
61474;BME280;53694;49.784;30.150;2022-12-17T00:26:41;99252.43;;;8.08;70.32
61474;BME280;53694;49.784;30.150;2022-12-17T00:27:42;99255.34;;;7.99;70.76
61474;BME280;53694;49.784;30.150;2022-12-17T00:28:44;99270.14;;;7.98;70.87
61474;BME280;53694;49.784;30.150;2022-12-17T00:29:45;99269.44;;;8.01;71.20
61474;BME280;53694;49.784;30.150;2022-12-17T00:30:50;99266.53;;;8.10;71.30
61474;BME280;53694;49.784;30.150;2022-12-17T00:31:52;99266.80;;;8.21;71.30
61474;BME280;53694;49.784;30.150;2022-12-17T00:32:54;99272.88;;;8.30;70.64
61474;BME280;53694;49.784;30.150;2022-12-17T00:33:55;99275.83;;;8.37;70.36
61474;BME280;53694;49.784;30.150;2022-12-17T00:34:57;99281.45;;;8.44;69.66
61474;BME280;53694;49.784;30.150;2022-12-17T00:35:58;99275.36;;;8.51;69.74
61474;BME280;53694;49.784;30.150;2022-12-17T00:37:00;99287.27;;;8.59;69.52
61474;BME280;53694;49.784;30.150;2022-12-17T00:38:02;99290.34;;;8.57;69.36
61474;BME280;53694;49.784;30.150;2022-12-17T00:39:03;99294.00;;;8.45;69.40
61474;BME280;53694;49.784;30.150;2022-12-17T00:40:07;99290.63;;;8.20;70.16
61474;BME280;53694;49.784;30.150;2022-12-17T00:41:09;99297.33;;;7.91;70.95
61474;BME280;53694;49.784;30.150;2022-12-17T00:42:10;99305.71;;;7.55;71.52
61474;BME280;53694;49.784;30.150;2022-12-17T00:43:12;99301.75;;;7.24;72.68
61474;BME280;53694;49.784;30.150;2022-12-17T00:44:14;99294.27;;;7.09;73.65
61474;BME280;53694;49.784;30.150;2022-12-17T00:45:15;99310.66;;;7.09;74.15
61474;BME280;53694;49.784;30.150;2022-12-17T00:46:17;99315.65;;;7.19;74.30
61474;BME280;53694;49.784;30.150;2022-12-17T00:47:18;99323.45;;;7.33;73.90
61474;BME280;53694;49.784;30.150;2022-12-17T00:48:19;99335.23;;;7.49;73.32
61474;BME280;53694;49.784;30.150;2022-12-17T00:49:21;99344.28;;;7.65;72.85
61474;BME280;53694;49.784;30.150;2022-12-17T00:50:23;99336.92;;;7.82;72.56
61474;BME280;53694;49.784;30.150;2022-12-17T00:51:24;99346.70;;;7.98;71.99
61474;BME280;53694;49.784;30.150;2022-12-17T00:52:26;99346.73;;;8.14;71.17
61474;BME280;53694;49.784;30.150;2022-12-17T00:53:28;99347.91;;;8.29;70.61
61474;BME280;53694;49.784;30.150;2022-12-17T00:54:29;99352.96;;;8.43;70.50
61474;BME280;53694;49.784;30.150;2022-12-17T00:55:31;99333.71;;;8.55;69.54
61474;BME280;53694;49.784;30.150;2022-12-17T00:56:32;99324.24;;;8.68;69.71
61474;BME280;53694;49.784;30.150;2022-12-17T00:57:34;99331.56;;;8.80;69.27
61474;BME280;53694;49.784;30.150;2022-12-17T00:58:35;99337.45;;;8.82;68.97
61474;BME280;53694;49.784;30.150;2022-12-17T00:59:37;99339.23;;;8.74;69.12
61474;BME280;53694;49.784;30.150;2022-12-17T01:00:39;99342.72;;;8.56;69.30
61474;BME280;53694;49.784;30.150;2022-12-17T01:01:41;99336.87;;;8.25;69.45
61474;BME280;53694;49.784;30.150;2022-12-17T01:02:42;99321.47;;;7.89;70.26
61474;BME280;53694;49.784;30.150;2022-12-17T01:03:44;99316.21;;;7.53;71.12
61474;BME280;53694;49.784;30.150;2022-12-17T01:04:46;99310.08;;;7.15;72.17
61474;BME280;53694;49.784;30.150;2022-12-17T01:05:47;99319.36;;;6.86;73.31
61474;BME280;53694;49.784;30.150;2022-12-17T01:06:49;99318.23;;;6.75;74.00
61474;BME280;53694;49.784;30.150;2022-12-17T01:07:50;99316.64;;;6.74;74.36
61474;BME280;53694;49.784;30.150;2022-12-17T01:08:52;99312.64;;;6.84;74.60
61474;BME280;53694;49.784;30.150;2022-12-17T01:09:53;99304.90;;;6.98;74.41
61474;BME280;53694;49.784;30.150;2022-12-17T01:11:04;99303.83;;;7.15;74.15
61474;BME280;53694;49.784;30.150;2022-12-17T01:12:06;99300.02;;;7.32;73.72
61474;BME280;53694;49.784;30.150;2022-12-17T01:13:10;99310.28;;;7.50;72.90
61474;BME280;53694;49.784;30.150;2022-12-17T01:14:11;99307.50;;;7.63;72.35
61474;BME280;53694;49.784;30.150;2022-12-17T01:15:13;99309.02;;;7.76;72.00
61474;BME280;53694;49.784;30.150;2022-12-17T01:16:14;99305.06;;;7.89;71.81
61474;BME280;53694;49.784;30.150;2022-12-17T01:17:16;99301.83;;;7.99;70.93
61474;BME280;53694;49.784;30.150;2022-12-17T01:18:18;99298.20;;;8.11;70.73
61474;BME280;53694;49.784;30.150;2022-12-17T01:19:21;99295.31;;;8.20;70.27
61474;BME280;53694;49.784;30.150;2022-12-17T01:20:22;99299.09;;;8.31;70.25
61474;BME280;53694;49.784;30.150;2022-12-17T01:21:24;99292.39;;;8.44;69.97
61474;BME280;53694;49.784;30.150;2022-12-17T01:22:25;99297.34;;;8.55;69.30
61474;BME280;53694;49.784;30.150;2022-12-17T01:23:27;99298.64;;;8.61;68.60
61474;BME280;53694;49.784;30.150;2022-12-17T01:24:29;99301.30;;;8.57;68.32
61474;BME280;53694;49.784;30.150;2022-12-17T01:25:30;99307.14;;;8.40;68.69
61474;BME280;53694;49.784;30.150;2022-12-17T01:26:32;99301.39;;;8.13;69.43
61474;BME280;53694;49.784;30.150;2022-12-17T01:27:33;99290.77;;;7.80;70.21
61474;BME280;53694;49.784;30.150;2022-12-17T01:28:35;99291.05;;;7.47;71.13
61474;BME280;53694;49.784;30.150;2022-12-17T01:29:36;99286.88;;;7.09;72.21
61474;BME280;53694;49.784;30.150;2022-12-17T01:30:38;99297.52;;;6.86;73.46
61474;BME280;53694;49.784;30.150;2022-12-17T01:31:39;99302.20;;;6.73;74.31
61474;BME280;53694;49.784;30.150;2022-12-17T01:32:41;99302.56;;;6.72;74.79
61474;BME280;53694;49.784;30.150;2022-12-17T01:33:43;99302.08;;;6.82;74.91
61474;BME280;53694;49.784;30.150;2022-12-17T01:34:44;99297.74;;;6.93;74.94
61474;BME280;53694;49.784;30.150;2022-12-17T01:35:46;99303.50;;;7.04;74.33
61474;BME280;53694;49.784;30.150;2022-12-17T01:36:47;99309.72;;;7.17;74.25
61474;BME280;53694;49.784;30.150;2022-12-17T01:37:48;99304.22;;;7.29;74.22
61474;BME280;53694;49.784;30.150;2022-12-17T01:38:50;99302.23;;;7.42;74.01
61474;BME280;53694;49.784;30.150;2022-12-17T01:39:52;99298.66;;;7.54;73.44
61474;BME280;53694;49.784;30.150;2022-12-17T01:40:53;99294.98;;;7.62;73.27
61474;BME280;53694;49.784;30.150;2022-12-17T01:41:55;99289.45;;;7.74;72.97
61474;BME280;53694;49.784;30.150;2022-12-17T01:42:56;99286.98;;;7.85;72.75
61474;BME280;53694;49.784;30.150;2022-12-17T01:43:57;99284.87;;;7.94;71.95
61474;BME280;53694;49.784;30.150;2022-12-17T01:45:00;99292.91;;;8.02;72.06
61474;BME280;53694;49.784;30.150;2022-12-17T01:46:02;99299.45;;;8.14;71.78
61474;BME280;53694;49.784;30.150;2022-12-17T01:47:06;99300.06;;;8.23;71.05
61474;BME280;53694;49.784;30.150;2022-12-17T01:48:15;99302.98;;;8.30;70.62
61474;BME280;53694;49.784;30.150;2022-12-17T01:49:18;99302.70;;;8.35;70.61
61474;BME280;53694;49.784;30.150;2022-12-17T01:50:23;99303.25;;;8.41;69.82
61474;BME280;53694;49.784;30.150;2022-12-17T01:51:26;99311.91;;;8.43;69.81
61474;BME280;53694;49.784;30.150;2022-12-17T01:52:30;99310.84;;;8.47;69.91
61474;BME280;53694;49.784;30.150;2022-12-17T01:53:34;99304.07;;;8.41;69.57
61474;BME280;53694;49.784;30.150;2022-12-17T01:54:37;99305.10;;;8.21;69.89
61474;BME280;53694;49.784;30.150;2022-12-17T01:55:39;99297.23;;;7.88;70.67
61474;BME280;53694;49.784;30.150;2022-12-17T01:56:42;99294.14;;;7.45;71.82
61474;BME280;53694;49.784;30.150;2022-12-17T01:57:44;99295.78;;;7.06;73.23
61474;BME280;53694;49.784;30.150;2022-12-17T01:58:46;99284.58;;;6.71;74.63
61474;BME280;53694;49.784;30.150;2022-12-17T02:00:03;99291.19;;;6.58;75.89
61474;BME280;53694;49.784;30.150;2022-12-17T02:01:08;99290.28;;;6.54;76.48
61474;BME280;53694;49.784;30.150;2022-12-17T02:02:09;99291.42;;;6.65;76.86
61474;BME280;53694;49.784;30.150;2022-12-17T02:03:16;99285.27;;;6.80;76.61
61474;BME280;53694;49.784;30.150;2022-12-17T02:04:18;99291.49;;;6.93;76.04
61474;BME280;53694;49.784;30.150;2022-12-17T02:05:22;99288.38;;;7.07;75.99
61474;BME280;53694;49.784;30.150;2022-12-17T02:06:26;99290.03;;;7.23;76.12
61474;BME280;53694;49.784;30.150;2022-12-17T02:07:46;99290.52;;;7.41;75.63
61474;BME280;53694;49.784;30.150;2022-12-17T02:10:10;99287.52;;;7.74;73.96
61474;BME280;53694;49.784;30.150;2022-12-17T02:12:43;99289.38;;;8.02;73.32
61474;BME280;53694;49.784;30.150;2022-12-17T02:13:51;99290.97;;;8.19;72.35
61474;BME280;53694;49.784;30.150;2022-12-17T02:15:27;99286.56;;;8.30;72.06
61474;BME280;53694;49.784;30.150;2022-12-17T02:17:18;99293.36;;;8.52;71.23
61474;BME280;53694;49.784;30.150;2022-12-17T02:18:24;99293.63;;;8.63;70.76
61474;BME280;53694;49.784;30.150;2022-12-17T02:20:59;99299.49;;;8.81;70.27
61474;BME280;53694;49.784;30.150;2022-12-17T02:22:04;99301.58;;;8.87;69.29
61474;BME280;53694;49.784;30.150;2022-12-17T02:24:43;99311.12;;;8.93;68.84
61474;BME280;53694;49.784;30.150;2022-12-17T02:26:00;99304.31;;;8.87;68.87
61474;BME280;53694;49.784;30.150;2022-12-17T02:27:01;99303.75;;;8.62;69.36
61474;BME280;53694;49.784;30.150;2022-12-17T02:28:03;99303.67;;;8.27;69.94
61474;BME280;53694;49.784;30.150;2022-12-17T02:29:06;99305.80;;;7.86;70.81
61474;BME280;53694;49.784;30.150;2022-12-17T02:30:10;99312.59;;;7.48;72.00
61474;BME280;53694;49.784;30.150;2022-12-17T02:31:12;99311.80;;;7.08;73.36
61474;BME280;53694;49.784;30.150;2022-12-17T02:32:17;99313.81;;;6.58;75.85
61474;BME280;53694;49.784;30.150;2022-12-17T02:33:20;99313.81;;;6.58;75.85
61474;BME280;53694;49.784;30.150;2022-12-17T02:34:22;99313.72;;;6.55;76.59
61474;BME280;53694;49.784;30.150;2022-12-17T02:35:34;99312.34;;;6.61;76.91
61474;BME280;53694;49.784;30.150;2022-12-17T02:36:36;99308.02;;;6.72;76.69
61474;BME280;53694;49.784;30.150;2022-12-17T02:37:37;99318.45;;;6.82;76.71
61474;BME280;53694;49.784;30.150;2022-12-17T02:38:39;99308.66;;;6.93;76.59
61474;BME280;53694;49.784;30.150;2022-12-17T02:39:40;99316.12;;;7.09;76.50
61474;BME280;53694;49.784;30.150;2022-12-17T02:40:44;99310.30;;;7.22;75.94
61474;BME280;53694;49.784;30.150;2022-12-17T02:41:49;99311.38;;;7.34;75.35
61474;BME280;53694;49.784;30.150;2022-12-17T02:42:52;99302.34;;;7.45;75.10
61474;BME280;53694;49.784;30.150;2022-12-17T02:43:54;99306.17;;;7.57;74.81
61474;BME280;53694;49.784;30.150;2022-12-17T02:44:57;99313.06;;;7.66;74.15
61474;BME280;53694;49.784;30.150;2022-12-17T02:45:59;99310.17;;;7.75;73.92
61474;BME280;53694;49.784;30.150;2022-12-17T02:47:03;99305.70;;;7.83;73.89
61474;BME280;53694;49.784;30.150;2022-12-17T02:48:07;99312.15;;;7.90;73.50
61474;BME280;53694;49.784;30.150;2022-12-17T02:49:10;99302.89;;;7.95;72.71
61474;BME280;53694;49.784;30.150;2022-12-17T02:50:12;99295.91;;;7.97;72.76
61474;BME280;53694;49.784;30.150;2022-12-17T02:51:14;99295.21;;;8.00;72.57
61474;BME280;53694;49.784;30.150;2022-12-17T02:52:18;99300.41;;;8.06;72.43
61474;BME280;53694;49.784;30.150;2022-12-17T02:53:21;99291.52;;;8.09;72.19
61474;BME280;53694;49.784;30.150;2022-12-17T02:54:22;99293.09;;;8.10;71.76
61474;BME280;53694;49.784;30.150;2022-12-17T02:55:23;99287.53;;;8.06;71.74
61474;BME280;53694;49.784;30.150;2022-12-17T02:56:25;99280.48;;;8.05;72.05
61474;BME280;53694;49.784;30.150;2022-12-17T02:57:27;99284.36;;;8.04;71.99
61474;BME280;53694;49.784;30.150;2022-12-17T02:58:28;99274.22;;;8.05;72.08
61474;BME280;53694;49.784;30.150;2022-12-17T02:59:30;99279.69;;;8.05;72.20
61474;BME280;53694;49.784;30.150;2022-12-17T03:00:32;99279.88;;;8.12;72.43
61474;BME280;53694;49.784;30.150;2022-12-17T03:01:33;99273.34;;;8.16;72.18
61474;BME280;53694;49.784;30.150;2022-12-17T03:02:35;99270.70;;;8.20;71.61
61474;BME280;53694;49.784;30.150;2022-12-17T03:03:36;99269.09;;;8.19;71.16
61474;BME280;53694;49.784;30.150;2022-12-17T03:04:38;99268.20;;;8.15;71.31
61474;BME280;53694;49.784;30.150;2022-12-17T03:05:39;99266.63;;;8.14;71.58
61474;BME280;53694;49.784;30.150;2022-12-17T03:06:44;99265.83;;;8.13;71.66
61474;BME280;53694;49.784;30.150;2022-12-17T03:07:45;99271.67;;;8.12;71.36
61474;BME280;53694;49.784;30.150;2022-12-17T03:08:47;99274.41;;;8.12;71.58
61474;BME280;53694;49.784;30.150;2022-12-17T03:09:48;99272.80;;;8.11;71.90
61474;BME280;53694;49.784;30.150;2022-12-17T03:10:50;99278.27;;;8.11;71.61
61474;BME280;53694;49.784;30.150;2022-12-17T03:11:52;99281.36;;;8.09;71.76
61474;BME280;53694;49.784;30.150;2022-12-17T03:12:53;99270.00;;;8.07;71.92
61474;BME280;53694;49.784;30.150;2022-12-17T03:14:00;99275.47;;;8.07;72.05
61474;BME280;53694;49.784;30.150;2022-12-17T03:15:02;99279.42;;;8.10;72.17
61474;BME280;53694;49.784;30.150;2022-12-17T03:16:10;99274.41;;;8.12;72.11
61474;BME280;53694;49.784;30.150;2022-12-17T03:17:11;99275.98;;;8.13;71.88
61474;BME280;53694;49.784;30.150;2022-12-17T03:18:13;99270.42;;;8.09;71.45
61474;BME280;53694;49.784;30.150;2022-12-17T03:19:14;99267.26;;;8.07;71.99
61474;BME280;53694;49.784;30.150;2022-12-17T03:20:16;99265.31;;;8.08;72.15
61474;BME280;53694;49.784;30.150;2022-12-17T03:21:18;99265.31;;;8.08;71.91
61474;BME280;53694;49.784;30.150;2022-12-17T03:22:19;99265.74;;;8.10;71.98
61474;BME280;53694;49.784;30.150;2022-12-17T03:23:21;99256.75;;;8.09;71.81
61474;BME280;53694;49.784;30.150;2022-12-17T03:24:22;99255.50;;;8.07;71.93
61474;BME280;53694;49.784;30.150;2022-12-17T03:25:23;99253.65;;;8.11;72.07
61474;BME280;53694;49.784;30.150;2022-12-17T03:26:25;99241.58;;;8.12;72.20
61474;BME280;53694;49.784;30.150;2022-12-17T03:27:27;99248.81;;;8.20;72.50
61474;BME280;53694;49.784;30.150;2022-12-17T03:28:28;99252.85;;;8.26;72.06
61474;BME280;53694;49.784;30.150;2022-12-17T03:29:29;99261.58;;;8.32;71.82
61474;BME280;53694;49.784;30.150;2022-12-17T03:30:31;99264.88;;;8.37;71.46
61474;BME280;53694;49.784;30.150;2022-12-17T03:31:33;99261.17;;;8.45;71.75
61474;BME280;53694;49.784;30.150;2022-12-17T03:32:35;99254.63;;;8.50;71.18
61474;BME280;53694;49.784;30.150;2022-12-17T03:33:36;99258.23;;;8.54;70.94
61474;BME280;53694;49.784;30.150;2022-12-17T03:34:38;99257.58;;;8.61;70.87
61474;BME280;53694;49.784;30.150;2022-12-17T03:35:39;99267.03;;;8.63;70.43
61474;BME280;53694;49.784;30.150;2022-12-17T03:36:41;99272.14;;;8.65;70.48
61474;BME280;53694;49.784;30.150;2022-12-17T03:37:43;99273.81;;;8.69;70.69
61474;BME280;53694;49.784;30.150;2022-12-17T03:38:44;99277.08;;;8.75;70.29
61474;BME280;53694;49.784;30.150;2022-12-17T03:39:46;99269.29;;;8.77;69.89
61474;BME280;53694;49.784;30.150;2022-12-17T03:40:50;99264.19;;;8.75;69.58
61474;BME280;53694;49.784;30.150;2022-12-17T03:41:52;99264.89;;;8.72;69.84
61474;BME280;53694;49.784;30.150;2022-12-17T03:42:54;99265.52;;;8.66;69.85
61474;BME280;53694;49.784;30.150;2022-12-17T03:43:55;99269.01;;;8.47;70.41
61474;BME280;53694;49.784;30.150;2022-12-17T03:44:57;99266.02;;;8.20;71.23
61474;BME280;53694;49.784;30.150;2022-12-17T03:45:58;99270.77;;;7.92;72.20
61474;BME280;53694;49.784;30.150;2022-12-17T03:47:00;99259.20;;;7.67;73.13
61474;BME280;53694;49.784;30.150;2022-12-17T03:48:11;99258.11;;;7.56;73.68
61474;BME280;53694;49.784;30.150;2022-12-17T03:49:09;99255.30;;;7.52;73.83
61474;BME280;53694;49.784;30.150;2022-12-17T03:50:11;99252.64;;;7.56;74.10
61474;BME280;53694;49.784;30.150;2022-12-17T03:51:13;99258.77;;;7.65;74.28
61474;BME280;53694;49.784;30.150;2022-12-17T03:52:15;99261.86;;;7.79;74.27
61474;BME280;53694;49.784;30.150;2022-12-17T03:53:16;99260.63;;;7.92;73.73
61474;BME280;53694;49.784;30.150;2022-12-17T03:54:18;99266.44;;;8.07;73.36
61474;BME280;53694;49.784;30.150;2022-12-17T03:55:19;99260.18;;;8.22;73.29
61474;BME280;53694;49.784;30.150;2022-12-17T03:56:21;99257.71;;;8.33;72.34
61474;BME280;53694;49.784;30.150;2022-12-17T03:57:22;99260.34;;;8.45;72.13
61474;BME280;53694;49.784;30.150;2022-12-17T03:58:24;99263.77;;;8.58;71.96
61474;BME280;53694;49.784;30.150;2022-12-17T03:59:26;99270.65;;;8.67;71.11
61474;BME280;53694;49.784;30.150;2022-12-17T04:00:27;99272.73;;;8.74;70.65
61474;BME280;53694;49.784;30.150;2022-12-17T04:01:29;99268.58;;;8.80;70.48
61474;BME280;53694;49.784;30.150;2022-12-17T04:02:30;99272.19;;;8.84;69.80
61474;BME280;53694;49.784;30.150;2022-12-17T04:03:32;99268.72;;;8.87;70.03
61474;BME280;53694;49.784;30.150;2022-12-17T04:04:33;99259.80;;;8.90;69.98
61474;BME280;53694;49.784;30.150;2022-12-17T04:05:35;99267.22;;;8.90;69.90
61474;BME280;53694;49.784;30.150;2022-12-17T04:06:36;99272.19;;;8.84;69.92
61474;BME280;53694;49.784;30.150;2022-12-17T04:07:37;99269.58;;;8.72;70.19
61474;BME280;53694;49.784;30.150;2022-12-17T04:08:39;99275.36;;;8.51;70.39
61474;BME280;53694;49.784;30.150;2022-12-17T04:09:40;99264.50;;;8.23;71.22
61474;BME280;53694;49.784;30.150;2022-12-17T04:10:42;99270.50;;;7.97;71.89
61474;BME280;53694;49.784;30.150;2022-12-17T04:11:44;99266.17;;;7.80;72.55
61474;BME280;53694;49.784;30.150;2022-12-17T04:12:45;99273.48;;;7.76;73.37
61474;BME280;53694;49.784;30.150;2022-12-17T04:13:47;99259.22;;;7.83;73.81
61474;BME280;53694;49.784;30.150;2022-12-17T04:14:49;99261.87;;;7.95;73.48
61474;BME280;53694;49.784;30.150;2022-12-17T04:15:50;99259.84;;;8.08;72.92
61474;BME280;53694;49.784;30.150;2022-12-17T04:16:52;99248.81;;;8.20;72.56
61474;BME280;53694;49.784;30.150;2022-12-17T04:17:53;99254.52;;;8.31;72.18
61474;BME280;53694;49.784;30.150;2022-12-17T04:18:55;99250.05;;;8.38;71.42
61474;BME280;53694;49.784;30.150;2022-12-17T04:19:56;99252.95;;;8.45;71.51
61474;BME280;53694;49.784;30.150;2022-12-17T04:20:58;99255.05;;;8.52;71.35
61474;BME280;53694;49.784;30.150;2022-12-17T04:21:59;99250.53;;;8.60;71.27
61474;BME280;53694;49.784;30.150;2022-12-17T04:23:01;99251.12;;;8.69;71.23
61474;BME280;53694;49.784;30.150;2022-12-17T04:24:03;99251.63;;;8.74;70.72
61474;BME280;53694;49.784;30.150;2022-12-17T04:25:05;99253.28;;;8.79;70.12
61474;BME280;53694;49.784;30.150;2022-12-17T04:26:07;99252.58;;;8.82;70.18
61474;BME280;53694;49.784;30.150;2022-12-17T04:27:09;99251.87;;;8.85;69.86
61474;BME280;53694;49.784;30.150;2022-12-17T04:28:10;99256.64;;;8.88;69.72
61474;BME280;53694;49.784;30.150;2022-12-17T04:29:12;99258.63;;;8.91;69.42
61474;BME280;53694;49.784;30.150;2022-12-17T04:30:15;99255.77;;;8.84;69.68
61474;BME280;53694;49.784;30.150;2022-12-17T04:31:16;99261.36;;;8.72;70.14
61474;BME280;53694;49.784;30.150;2022-12-17T04:32:17;99250.22;;;8.45;70.40
61474;BME280;53694;49.784;30.150;2022-12-17T04:33:19;99268.20;;;8.15;71.21
61474;BME280;53694;49.784;30.150;2022-12-17T04:34:21;99264.33;;;7.84;72.24
61474;BME280;53694;49.784;30.150;2022-12-17T04:35:22;99263.97;;;7.70;73.24
61474;BME280;53694;49.784;30.150;2022-12-17T04:36:24;99267.03;;;7.68;73.66
61474;BME280;53694;49.784;30.150;2022-12-17T04:37:25;99262.45;;;7.72;73.49
61474;BME280;53694;49.784;30.150;2022-12-17T04:38:27;99268.58;;;7.82;73.80
61474;BME280;53694;49.784;30.150;2022-12-17T04:39:28;99264.15;;;7.93;73.58
61474;BME280;53694;49.784;30.150;2022-12-17T04:40:30;99267.26;;;8.07;73.53
61474;BME280;53694;49.784;30.150;2022-12-17T04:41:31;99263.28;;;8.20;72.98
61474;BME280;53694;49.784;30.150;2022-12-17T04:42:33;99266.25;;;8.31;72.45
61474;BME280;53694;49.784;30.150;2022-12-17T04:43:34;99263.45;;;8.43;72.19
61474;BME280;53694;49.784;30.150;2022-12-17T04:44:36;99266.78;;;8.53;72.19
61474;BME280;53694;49.784;30.150;2022-12-17T04:45:37;99264.72;;;8.65;71.99
61474;BME280;53694;49.784;30.150;2022-12-17T04:46:39;99272.73;;;8.74;71.07
61474;BME280;53694;49.784;30.150;2022-12-17T04:47:40;99273.69;;;8.82;70.71
61474;BME280;53694;49.784;30.150;2022-12-17T04:48:42;99267.59;;;8.88;70.38
61474;BME280;53694;49.784;30.150;2022-12-17T04:49:43;99269.33;;;8.96;70.45
61474;BME280;53694;49.784;30.150;2022-12-17T04:50:45;99261.61;;;9.02;69.56
61474;BME280;53694;49.784;30.150;2022-12-17T04:51:46;99261.23;;;9.04;69.14
61474;BME280;53694;49.784;30.150;2022-12-17T04:52:48;99267.17;;;9.06;69.67
61474;BME280;53694;49.784;30.150;2022-12-17T04:53:49;99260.95;;;9.09;69.99
61474;BME280;53694;49.784;30.150;2022-12-17T04:54:51;99260.38;;;8.99;69.96
61474;BME280;53694;49.784;30.150;2022-12-17T04:55:55;99261.95;;;8.81;70.11
61474;BME280;53694;49.784;30.150;2022-12-17T04:56:57;99262.09;;;8.53;70.55
61474;BME280;53694;49.784;30.150;2022-12-17T04:58:03;99258.14;;;8.19;71.29
61474;BME280;53694;49.784;30.150;2022-12-17T04:59:06;99264.61;;;7.95;72.55
61474;BME280;53694;49.784;30.150;2022-12-17T05:00:09;99264.33;;;7.84;73.14
61474;BME280;53694;49.784;30.150;2022-12-17T05:01:11;99257.01;;;7.88;73.46
61474;BME280;53694;49.784;30.150;2022-12-17T05:02:12;99260.02;;;7.99;73.28
61474;BME280;53694;49.784;30.150;2022-12-17T05:03:15;99265.83;;;8.13;72.90
61474;BME280;53694;49.784;30.150;2022-12-17T05:04:17;99262.30;;;8.29;72.67
61474;BME280;53694;49.784;30.150;2022-12-17T05:05:18;99264.23;;;8.44;71.97
61474;BME280;53694;49.784;30.150;2022-12-17T05:06:20;99268.02;;;8.55;71.41
61474;BME280;53694;49.784;30.150;2022-12-17T05:07:21;99272.59;;;8.67;71.18
61474;BME280;53694;49.784;30.150;2022-12-17T05:08:23;99272.53;;;8.83;71.31
61474;BME280;53694;49.784;30.150;2022-12-17T05:09:24;99258.42;;;9.00;70.80
61474;BME280;53694;49.784;30.150;2022-12-17T05:10:26;99259.94;;;9.17;70.21
61474;BME280;53694;49.784;30.150;2022-12-17T05:11:27;99249.62;;;9.30;69.49
61474;BME280;53694;49.784;30.150;2022-12-17T05:12:29;99259.23;;;9.39;68.94
61474;BME280;53694;49.784;30.150;2022-12-17T05:13:30;99255.81;;;9.46;68.29
61474;BME280;53694;49.784;30.150;2022-12-17T05:14:32;99257.70;;;9.42;67.25
61474;BME280;53694;49.784;30.150;2022-12-17T05:15:33;99259.67;;;9.22;67.52
61474;BME280;53694;49.784;30.150;2022-12-17T05:16:35;99247.84;;;8.98;68.61
61474;BME280;53694;49.784;30.150;2022-12-17T05:17:36;99258.55;;;8.68;69.10
61474;BME280;53694;49.784;30.150;2022-12-17T05:18:38;99253.82;;;8.34;69.94
61474;BME280;53694;49.784;30.150;2022-12-17T05:19:39;99265.12;;;8.00;70.83
61474;BME280;53694;49.784;30.150;2022-12-17T05:20:41;99255.31;;;7.68;71.62
61474;BME280;53694;49.784;30.150;2022-12-17T05:21:42;99256.74;;;7.34;72.62
61474;BME280;53694;49.784;30.150;2022-12-17T05:22:44;99266.39;;;7.15;73.79
61474;BME280;53694;49.784;30.150;2022-12-17T05:23:45;99258.45;;;7.10;74.53
61474;BME280;53694;49.784;30.150;2022-12-17T05:24:47;99263.77;;;7.19;74.74
61474;BME280;53694;49.784;30.150;2022-12-17T05:25:55;99261.52;;;7.37;74.52
61474;BME280;53694;49.784;30.150;2022-12-17T05:26:52;99260.84;;;7.56;73.90
61474;BME280;53694;49.784;30.150;2022-12-17T05:27:53;99262.55;;;7.76;73.03
61474;BME280;53694;49.784;30.150;2022-12-17T05:28:55;99258.41;;;7.98;72.76
61474;BME280;53694;49.784;30.150;2022-12-17T05:29:56;99265.23;;;8.20;71.95
61474;BME280;53694;49.784;30.150;2022-12-17T05:30:58;99268.72;;;8.36;70.61
61474;BME280;53694;49.784;30.150;2022-12-17T05:31:59;99270.59;;;8.48;69.98
61474;BME280;53694;49.784;30.150;2022-12-17T05:33:02;99261.48;;;8.60;70.11
61474;BME280;53694;49.784;30.150;2022-12-17T05:34:04;99273.89;;;8.73;69.83
61474;BME280;53694;49.784;30.150;2022-12-17T05:35:07;99264.61;;;8.78;69.41
61474;BME280;53694;49.784;30.150;2022-12-17T05:36:12;99259.92;;;8.78;69.43
61474;BME280;53694;49.784;30.150;2022-12-17T05:37:13;99262.15;;;8.72;68.91